Time;durP1;ratioP1;P1;durP2;ratioP2;P2;SDS_P1;SDS_P2;PMS_P1;PMS_P2;Temp;Humidity;BMP_temperature;BMP_pressure;BME280_temperature;BME280_humidity;BME280_pressure;Samples;Min_cycle;Max_cycle;Signal;HPM_P1;HPM_P2
2022/03/18 00:00:25;;;;;;;38.20;27.20;;;;;;;;;;5030006;28;20196;-85
2022/03/18 00:03:29;;;;;;;40.90;28.33;;;;;;;;;;5045603;28;20187;-85
2022/03/18 00:06:34;;;;;;;44.33;28.67;;;;;;;;;;5030425;28;20207;-85
2022/03/18 00:09:41;;;;;;;40.27;27.90;;;;;;;;;;5043199;28;20242;-85
2022/03/18 00:12:46;;;;;;;38.03;27.10;;;;;;;;;;5030463;28;20184;-86
2022/03/18 00:15:50;;;;;;;38.63;27.33;;;;;;;;;;5053284;28;20252;-85
2022/03/18 00:18:55;;;;;;;43.73;28.93;;;;;;;;;;5031287;28;20223;-86
2022/03/18 00:22:01;;;;;;;42.77;29.30;;;;;;;;;;5042039;28;20207;-85
2022/03/18 00:25:06;;;;;;;42.57;29.43;;;;;;;;;;5029997;28;20176;-86
2022/03/18 00:28:10;;;;;;;41.10;29.20;;;;;;;;;;5030219;28;20579;-86
2022/03/18 00:31:14;;;;;;;41.33;28.27;;;;;;;;;;5043892;28;20531;-86
2022/03/18 00:34:18;;;;;;;39.97;28.40;;;;;;;;;;5032141;28;20180;-85
2022/03/18 00:37:22;;;;;;;42.60;28.80;;;;;;;;;;5052933;28;20196;-85
2022/03/18 00:40:27;;;;;;;40.60;28.53;;;;;;;;;;5048012;28;20203;-85
2022/03/18 00:43:31;;;;;;;43.60;27.40;;;;;;;;;;5035186;28;20196;-86
2022/03/18 00:46:35;;;;;;;40.07;28.50;;;;;;;;;;5044455;28;20189;-86
2022/03/18 00:53:02;;;;;;;40.47;27.57;;;;;;;;;;5043937;28;20184;-86
2022/03/18 00:56:06;;;;;;;42.10;28.70;;;;;;;;;;5043520;28;20199;-86
2022/03/18 00:59:10;;;;;;;40.63;26.43;;;;;;;;;;5054272;28;20255;-87
2022/03/18 01:02:14;;;;;;;38.67;26.80;;;;;;;;;;5029736;28;20191;-87
2022/03/18 01:05:18;;;;;;;42.83;29.23;;;;;;;;;;5031358;28;20240;-87
2022/03/18 01:08:23;;;;;;;41.10;28.47;;;;;;;;;;5034681;28;20208;-86
2022/03/18 01:11:28;;;;;;;42.40;29.33;;;;;;;;;;5035240;28;20188;-86
2022/03/18 01:14:32;;;;;;;44.53;28.73;;;;;;;;;;5058729;28;20543;-86
2022/03/18 01:17:36;;;;;;;42.87;29.07;;;;;;;;;;5035471;28;20193;-86
2022/03/18 01:20:41;;;;;;;45.87;30.57;;;;;;;;;;5058115;28;20185;-86
2022/03/18 01:23:45;;;;;;;41.50;29.53;;;;;;;;;;5034944;28;20184;-86
2022/03/18 01:26:49;;;;;;;41.23;28.73;;;;;;;;;;5034444;28;20695;-86
2022/03/18 01:29:54;;;;;;;40.70;29.10;;;;;;;;;;5057758;28;20725;-86
2022/03/18 01:33:02;;;;;;;38.97;27.97;;;;;;;;;;5045799;28;20183;-86
2022/03/18 01:36:06;;;;;;;44.60;29.53;;;;;;;;;;5034641;28;20189;-86
2022/03/18 01:39:12;;;;;;;47.27;29.70;;;;;;;;;;5045106;28;20566;-86
2022/03/18 01:42:17;;;;;;;41.07;28.03;;;;;;;;;;5033847;28;20188;-85
2022/03/18 01:45:21;;;;;;;40.10;28.67;;;;;;;;;;5033980;28;20191;-85
2022/03/18 01:48:26;;;;;;;40.57;28.23;;;;;;;;;;5044852;28;20222;-86
2022/03/18 01:51:30;;;;;;;42.50;28.07;;;;;;;;;;5044734;28;20219;-85
2022/03/18 01:54:44;;;;;;;43.10;29.53;;;;;;;;;;5044700;28;20191;-85
2022/03/18 01:57:49;;;;;;;44.03;30.13;;;;;;;;;;5044169;28;20582;-86
2022/03/18 02:00:52;;;;;;;41.27;28.70;;;;;;;;;;5044470;28;20180;-86
2022/03/18 02:03:56;;;;;;;45.17;29.90;;;;;;;;;;5032890;28;20211;-86
2022/03/18 02:07:02;;;;;;;43.07;29.30;;;;;;;;;;5033062;28;20326;-85
2022/03/18 02:10:07;;;;;;;46.13;30.20;;;;;;;;;;5043927;28;20236;-85
2022/03/18 02:13:11;;;;;;;45.97;30.07;;;;;;;;;;5044249;28;20176;-85
2022/03/18 02:16:15;;;;;;;47.00;30.33;;;;;;;;;;5032106;28;20646;-85
2022/03/18 02:19:19;;;;;;;46.90;29.13;;;;;;;;;;5043706;28;20224;-85
2022/03/18 02:22:25;;;;;;;47.97;29.40;;;;;;;;;;5032814;28;20181;-85
2022/03/18 02:25:30;;;;;;;43.83;28.60;;;;;;;;;;5032780;28;20180;-85
2022/03/18 02:28:34;;;;;;;39.73;28.17;;;;;;;;;;5031560;28;20215;-85
2022/03/18 02:31:38;;;;;;;43.90;30.57;;;;;;;;;;5032283;28;20218;-85
2022/03/18 02:34:42;;;;;;;44.80;30.27;;;;;;;;;;5043404;28;20191;-85
2022/03/18 02:37:46;;;;;;;42.43;29.30;;;;;;;;;;5031332;28;20189;-85
2022/03/18 02:40:50;;;;;;;41.97;29.90;;;;;;;;;;5054252;28;20191;-85
2022/03/18 02:43:54;;;;;;;40.43;27.77;;;;;;;;;;5042819;28;20184;-85
2022/03/18 02:46:59;;;;;;;44.30;29.83;;;;;;;;;;5042112;28;20199;-85
2022/03/18 02:50:04;;;;;;;42.40;29.93;;;;;;;;;;5042267;28;20229;-85
2022/03/18 02:53:08;;;;;;;39.77;27.80;;;;;;;;;;5030560;28;20570;-85
2022/03/18 02:56:12;;;;;;;47.43;32.03;;;;;;;;;;5042195;28;20207;-85
2022/03/18 02:59:17;;;;;;;40.17;27.20;;;;;;;;;;5030569;28;20590;-85
2022/03/18 03:02:21;;;;;;;45.63;30.47;;;;;;;;;;5042470;28;20183;-85
2022/03/18 03:08:47;;;;;;;42.10;28.87;;;;;;;;;;5053491;28;20228;-85
2022/03/18 03:11:51;;;;;;;46.47;30.90;;;;;;;;;;5041910;28;20232;-85
2022/03/18 03:14:55;;;;;;;45.50;29.73;;;;;;;;;;5042096;28;20537;-85
2022/03/18 03:18:00;;;;;;;41.53;28.47;;;;;;;;;;5030510;28;20207;-85
2022/03/18 03:21:04;;;;;;;42.20;29.80;;;;;;;;;;5030471;28;20203;-85
2022/03/18 03:24:08;;;;;;;47.20;30.80;;;;;;;;;;5030328;28;20203;-85
2022/03/18 03:27:12;;;;;;;40.13;28.93;;;;;;;;;;5041806;28;20621;-85
2022/03/18 03:30:16;;;;;;;45.17;31.20;;;;;;;;;;5053904;28;20210;-85
2022/03/18 03:33:20;;;;;;;41.63;29.03;;;;;;;;;;5031286;28;20574;-86
2022/03/18 03:36:25;;;;;;;42.70;30.07;;;;;;;;;;5031259;28;20212;-85
2022/03/18 03:39:29;;;;;;;42.63;29.00;;;;;;;;;;5030593;28;20582;-85
2022/03/18 03:42:34;;;;;;;41.00;28.73;;;;;;;;;;5030983;28;20176;-85
2022/03/18 03:45:38;;;;;;;42.43;30.10;;;;;;;;;;5042371;28;20551;-85
2022/03/18 03:48:43;;;;;;;42.30;27.90;;;;;;;;;;5041809;28;20223;-86
2022/03/18 03:51:46;;;;;;;44.00;29.60;;;;;;;;;;5042225;28;20212;-85
2022/03/18 03:54:50;;;;;;;45.17;30.17;;;;;;;;;;5030723;28;20189;-85
2022/03/18 03:57:55;;;;;;;43.43;30.23;;;;;;;;;;5030346;28;20196;-85
2022/03/18 04:00:59;;;;;;;40.13;28.80;;;;;;;;;;5042211;28;20183;-85
2022/03/18 04:04:04;;;;;;;46.63;29.23;;;;;;;;;;5053171;28;20203;-85
2022/03/18 04:07:08;;;;;;;42.43;29.27;;;;;;;;;;5053694;28;20206;-85
2022/03/18 04:10:16;;;;;;;43.30;30.27;;;;;;;;;;5053108;28;20222;-86
2022/03/18 04:13:20;;;;;;;41.90;28.40;;;;;;;;;;5043746;28;20195;-85
2022/03/18 04:16:24;;;;;;;41.77;29.00;;;;;;;;;;5042243;28;20196;-85
2022/03/18 04:19:29;;;;;;;46.23;29.50;;;;;;;;;;5041963;28;20584;-86
2022/03/18 04:22:33;;;;;;;46.17;30.43;;;;;;;;;;5030478;28;20184;-85
2022/03/18 04:25:37;;;;;;;44.10;29.83;;;;;;;;;;5041692;28;20548;-85
2022/03/18 04:28:42;;;;;;;43.47;29.63;;;;;;;;;;5030531;28;20715;-86
2022/03/18 04:31:46;;;;;;;47.20;29.67;;;;;;;;;;5054220;28;20689;-86
2022/03/18 04:34:50;;;;;;;44.10;29.23;;;;;;;;;;5030678;28;20187;-86
2022/03/18 04:37:54;;;;;;;43.07;29.27;;;;;;;;;;5054114;28;20563;-87
2022/03/18 04:40:59;;;;;;;41.87;29.77;;;;;;;;;;5034225;28;20205;-85
2022/03/18 04:44:03;;;;;;;44.90;30.80;;;;;;;;;;5046433;28;20184;-85
2022/03/18 04:47:07;;;;;;;48.17;31.43;;;;;;;;;;5034699;28;20200;-85
2022/03/18 04:50:11;;;;;;;49.83;32.33;;;;;;;;;;5046103;28;20210;-85
2022/03/18 04:53:16;;;;;;;48.00;31.77;;;;;;;;;;5046258;28;20638;-85
2022/03/18 04:59:43;;;;;;;48.23;32.13;;;;;;;;;;5045623;28;20232;-85
2022/03/18 05:02:47;;;;;;;45.13;31.03;;;;;;;;;;5034471;28;20643;-85
2022/03/18 05:05:51;;;;;;;47.67;31.17;;;;;;;;;;5045790;28;20176;-85
2022/03/18 05:08:55;;;;;;;44.83;30.20;;;;;;;;;;5046143;28;20222;-85
2022/03/18 05:11:59;;;;;;;44.00;30.27;;;;;;;;;;5034215;28;20219;-85
2022/03/18 05:15:04;;;;;;;45.37;31.77;;;;;;;;;;5045250;28;20656;-85
2022/03/18 05:18:08;;;;;;;41.57;28.93;;;;;;;;;;5056219;28;20705;-85
2022/03/18 05:21:14;;;;;;;47.47;28.87;;;;;;;;;;5044272;28;20196;-85
2022/03/18 05:24:18;;;;;;;41.47;29.10;;;;;;;;;;5033363;28;20188;-85
2022/03/18 05:27:22;;;;;;;46.47;30.13;;;;;;;;;;5033135;28;20669;-85
2022/03/18 05:30:26;;;;;;;45.57;30.30;;;;;;;;;;5033633;28;20643;-85
2022/03/18 05:33:30;;;;;;;43.33;30.60;;;;;;;;;;5056323;28;20650;-85
2022/03/18 05:36:34;;;;;;;50.00;30.67;;;;;;;;;;5056733;28;20180;-85
2022/03/18 05:39:38;;;;;;;46.23;31.63;;;;;;;;;;5044680;28;20231;-85
2022/03/18 05:42:42;;;;;;;45.17;29.63;;;;;;;;;;5044307;28;20185;-85
2022/03/18 05:45:47;;;;;;;50.17;30.83;;;;;;;;;;5033289;28;20199;-85
2022/03/18 05:48:52;;;;;;;44.67;30.17;;;;;;;;;;5033189;28;20215;-85
2022/03/18 05:51:57;;;;;;;47.50;31.07;;;;;;;;;;5043196;28;20283;-85
2022/03/18 05:55:02;;;;;;;46.63;32.43;;;;;;;;;;5056430;28;20207;-85
2022/03/18 05:58:06;;;;;;;68.07;40.37;;;;;;;;;;5033798;28;20222;-86
2022/03/18 06:01:13;;;;;;;70.70;43.63;;;;;;;;;;5057201;28;20183;-87
2022/03/18 06:04:17;;;;;;;51.70;33.17;;;;;;;;;;5043579;28;20204;-87
2022/03/18 06:07:22;;;;;;;49.77;32.60;;;;;;;;;;5032063;28;20674;-87
2022/03/18 06:14:03;;;;;;;49.07;31.50;;;;;;;;;;5026273;28;20677;-87
2022/03/18 06:17:07;;;;;;;53.33;34.20;;;;;;;;;;5032081;28;20207;-86
2022/03/18 06:20:12;;;;;;;56.27;36.23;;;;;;;;;;5042753;28;20562;-86
2022/03/18 06:23:15;;;;;;;56.87;36.63;;;;;;;;;;5032171;28;20175;-86
2022/03/18 06:26:20;;;;;;;50.83;32.63;;;;;;;;;;5043262;28;20180;-86
2022/03/18 06:29:27;;;;;;;43.67;29.80;;;;;;;;;;5042930;28;20219;-86
2022/03/18 06:32:31;;;;;;;41.40;28.53;;;;;;;;;;5031938;28;20216;-86
2022/03/18 06:35:35;;;;;;;44.07;29.13;;;;;;;;;;5044923;28;20654;-86
2022/03/18 06:38:40;;;;;;;42.97;28.93;;;;;;;;;;5044527;28;20224;-86
2022/03/18 06:41:45;;;;;;;44.50;28.50;;;;;;;;;;5057873;28;20176;-86
2022/03/18 06:44:48;;;;;;;56.73;33.30;;;;;;;;;;5032800;28;20179;-86
2022/03/18 06:47:53;;;;;;;48.17;28.90;;;;;;;;;;5032020;28;20203;-85
2022/03/18 06:50:59;;;;;;;45.10;30.63;;;;;;;;;;5042459;28;20195;-86
2022/03/18 06:54:03;;;;;;;39.57;27.23;;;;;;;;;;5032598;28;20663;-86
2022/03/18 06:57:07;;;;;;;38.90;26.07;;;;;;;;;;5033731;28;20185;-86
2022/03/18 07:00:13;;;;;;;41.03;27.13;;;;;;;;;;5042979;23;20226;-86
2022/03/18 07:03:17;;;;;;;36.47;25.30;;;;;;;;;;4980306;28;20178;-88
2022/03/18 07:06:21;;;;;;;36.00;25.30;;;;;;;;;;4980854;28;20189;-88
2022/03/18 07:09:25;;;;;;;36.93;24.30;;;;;;;;;;4980708;28;20716;-88
2022/03/18 07:12:29;;;;;;;38.50;24.83;;;;;;;;;;4969666;28;20231;-88
2022/03/18 07:15:34;;;;;;;40.20;23.53;;;;;;;;;;4969775;28;20182;-87
2022/03/18 07:18:38;;;;;;;35.43;23.67;;;;;;;;;;4980610;28;20179;-87
2022/03/18 07:21:42;;;;;;;36.70;23.00;;;;;;;;;;4969591;28;20186;-87
2022/03/18 07:24:46;;;;;;;31.63;22.93;;;;;;;;;;4969541;28;20191;-87
2022/03/18 07:27:50;;;;;;;38.43;23.70;;;;;;;;;;4968940;28;20187;-87
2022/03/18 07:30:54;;;;;;;32.77;23.53;;;;;;;;;;4969277;28;20252;-88
2022/03/18 07:33:58;;;;;;;32.60;21.97;;;;;;;;;;4969625;28;20179;-87
2022/03/18 07:37:03;;;;;;;32.23;22.23;;;;;;;;;;4980282;28;20185;-88
2022/03/18 07:40:11;;;;;;;31.27;21.47;;;;;;;;;;4979759;28;20223;-88
2022/03/18 07:43:15;;;;;;;31.03;21.17;;;;;;;;;;4980396;28;20182;-88
2022/03/18 07:46:19;;;;;;;32.83;21.30;;;;;;;;;;4969346;28;20657;-87
2022/03/18 07:49:23;;;;;;;31.73;20.47;;;;;;;;;;4991333;28;20719;-87
2022/03/18 07:52:27;;;;;;;31.73;21.03;;;;;;;;;;4980157;28;20209;-88
2022/03/18 07:55:33;;;;;;;29.40;21.23;;;;;;;;;;4968715;28;20201;-87
2022/03/18 07:58:37;;;;;;;33.47;20.63;;;;;;;;;;4968632;28;20187;-87
2022/03/18 08:01:41;;;;;;;32.47;21.20;;;;;;;;;;4969118;28;20190;-87
2022/03/18 08:04:51;;;;;;;29.60;20.77;;;;;;;;;;4968854;28;20178;-87
2022/03/18 08:07:56;;;;;;;33.20;22.50;;;;;;;;;;4968375;28;20208;-87
2022/03/18 08:11:00;;;;;;;30.27;21.53;;;;;;;;;;4979737;28;20182;-87
2022/03/18 08:14:04;;;;;;;32.90;21.73;;;;;;;;;;4968901;28;20651;-87
2022/03/18 08:17:08;;;;;;;30.33;21.40;;;;;;;;;;4983477;28;20533;-87
2022/03/18 08:20:14;;;;;;;29.10;20.83;;;;;;;;;;4971880;28;20224;-87
2022/03/18 08:23:18;;;;;;;29.67;20.97;;;;;;;;;;4982789;28;20218;-88
2022/03/18 08:26:23;;;;;;;34.47;21.33;;;;;;;;;;4972106;28;20209;-87
2022/03/18 08:29:27;;;;;;;32.97;22.33;;;;;;;;;;4982836;28;20210;-87
2022/03/18 08:32:32;;;;;;;31.20;21.07;;;;;;;;;;4983150;28;20221;-87
2022/03/18 08:35:39;;;;;;;31.97;22.17;;;;;;;;;;4971637;28;20194;-87
2022/03/18 08:38:43;;;;;;;32.93;22.07;;;;;;;;;;4982929;28;20191;-87
2022/03/18 08:41:47;;;;;;;31.73;21.90;;;;;;;;;;4982708;28;20178;-87
2022/03/18 08:44:52;;;;;;;30.83;21.33;;;;;;;;;;4971970;28;20672;-87
2022/03/18 08:47:56;;;;;;;33.40;23.53;;;;;;;;;;4971879;28;20189;-87
2022/03/18 08:51:00;;;;;;;38.03;23.60;;;;;;;;;;4982773;28;20185;-87
2022/03/18 08:54:04;;;;;;;38.83;23.57;;;;;;;;;;4993986;28;20206;-87
2022/03/18 08:57:09;;;;;;;35.13;23.57;;;;;;;;;;4982558;28;20189;-87
2022/03/18 09:00:15;;;;;;;33.87;23.40;;;;;;;;;;4971112;28;20225;-87
2022/03/18 09:03:20;;;;;;;34.83;23.07;;;;;;;;;;4971198;28;20206;-87
2022/03/18 09:06:24;;;;;;;35.90;22.73;;;;;;;;;;4971114;28;20205;-87
2022/03/18 09:09:28;;;;;;;35.07;24.23;;;;;;;;;;4971061;28;20225;-87
2022/03/18 09:12:32;;;;;;;32.67;22.80;;;;;;;;;;4982131;28;20223;-87
2022/03/18 09:15:36;;;;;;;36.17;25.70;;;;;;;;;;4971724;28;20193;-87
2022/03/18 09:18:40;;;;;;;33.80;23.47;;;;;;;;;;4970925;28;20185;-87
2022/03/18 09:21:45;;;;;;;38.17;24.83;;;;;;;;;;4971595;28;20201;-87
2022/03/18 09:24:49;;;;;;;35.77;23.87;;;;;;;;;;4970794;28;20193;-88
2022/03/18 09:27:53;;;;;;;33.50;24.30;;;;;;;;;;4982189;28;20683;-87
2022/03/18 09:30:57;;;;;;;33.60;23.73;;;;;;;;;;4982027;28;20185;-87
2022/03/18 09:34:01;;;;;;;34.93;23.93;;;;;;;;;;4971010;28;20197;-88
2022/03/18 09:37:05;;;;;;;34.33;25.23;;;;;;;;;;4970137;28;20216;-88
2022/03/18 09:40:11;;;;;;;36.77;25.90;;;;;;;;;;4970630;28;20588;-87
2022/03/18 09:43:14;;;;;;;37.13;26.50;;;;;;;;;;4970838;28;20181;-87
2022/03/18 09:46:19;;;;;;;36.90;26.07;;;;;;;;;;4970777;28;20190;-87
2022/03/18 09:49:23;;;;;;;39.67;27.30;;;;;;;;;;4981468;28;20240;-87
2022/03/18 09:52:27;;;;;;;34.97;25.47;;;;;;;;;;4970701;28;20565;-87
2022/03/18 09:55:34;;;;;;;37.93;26.40;;;;;;;;;;4970647;28;20690;-87
2022/03/18 09:58:38;;;;;;;38.97;27.07;;;;;;;;;;4970269;28;20205;-87
2022/03/18 10:01:43;;;;;;;41.67;27.53;;;;;;;;;;4969949;28;20185;-87
2022/03/18 10:04:58;;;;;;;35.33;25.10;;;;;;;;;;4981258;28;20185;-87
2022/03/18 10:08:03;;;;;;;37.63;26.67;;;;;;;;;;4970301;28;20198;-87
2022/03/18 10:11:27;;;;;;;38.27;27.13;;;;;;;;;;4970410;28;20189;-87
2022/03/18 10:14:33;;;;;;;34.23;24.87;;;;;;;;;;4981211;28;20178;-87
2022/03/18 10:17:48;;;;;;;36.73;25.53;;;;;;;;;;4970159;28;20193;-87
2022/03/18 10:20:52;;;;;;;35.40;24.60;;;;;;;;;;4969878;28;20213;-87
2022/03/18 10:24:06;;;;;;;37.77;26.50;;;;;;;;;;4981066;28;20567;-87
2022/03/18 10:27:14;;;;;;;37.30;27.57;;;;;;;;;;4970098;28;20193;-87
2022/03/18 10:30:22;;;;;;;39.13;27.53;;;;;;;;;;4992581;28;20221;-87
2022/03/18 10:37:04;;;;;;;40.20;25.50;;;;;;;;;;4970089;28;20684;-87
2022/03/18 10:37:09;;;;;;;35.30;23.90;;;;;;;;;;4991272;28;20186;-87
2022/03/18 10:40:17;;;;;;;34.13;25.07;;;;;;;;;;4969715;28;20217;-87
2022/03/18 10:43:21;;;;;;;35.70;23.63;;;;;;;;;;4980902;28;20186;-87
2022/03/18 10:46:25;;;;;;;32.07;22.53;;;;;;;;;;4980848;28;20643;-87
2022/03/18 10:49:30;;;;;;;29.33;21.87;;;;;;;;;;4980610;28;20225;-87
2022/03/18 10:52:34;;;;;;;30.40;21.93;;;;;;;;;;4980349;28;20213;-87
2022/03/18 10:55:41;;;;;;;29.20;19.13;;;;;;;;;;4969543;28;20194;-87
2022/03/18 10:58:45;;;;;;;34.47;21.30;;;;;;;;;;4991719;28;20205;-87
2022/03/18 11:01:51;;;;;;;26.03;19.63;;;;;;;;;;4969445;28;20198;-87
2022/03/18 11:04:55;;;;;;;30.90;20.30;;;;;;;;;;4969375;28;20205;-87
2022/03/18 11:08:05;;;;;;;26.47;19.73;;;;;;;;;;4969942;28;20209;-87
2022/03/18 11:14:20;;;;;;;23.60;17.87;;;;;;;;;;4991472;28;20221;-87
2022/03/18 11:17:24;;;;;;;23.13;17.37;;;;;;;;;;4980497;28;20556;-87
2022/03/18 11:20:29;;;;;;;25.27;17.50;;;;;;;;;;4969383;28;20229;-87
2022/03/18 11:23:37;;;;;;;26.73;18.23;;;;;;;;;;4969287;28;20186;-87
2022/03/18 11:26:48;;;;;;;22.23;16.53;;;;;;;;;;4980282;28;20197;-87
2022/03/18 11:30:16;;;;;;;22.60;16.33;;;;;;;;;;4980052;28;20217;-88
2022/03/18 11:33:22;;;;;;;28.07;18.93;;;;;;;;;;4969143;28;20679;-87
2022/03/18 11:36:26;;;;;;;26.37;17.60;;;;;;;;;;4969137;28;20209;-87
2022/03/18 11:39:30;;;;;;;23.47;17.17;;;;;;;;;;4968570;28;20221;-87
2022/03/18 11:42:34;;;;;;;26.80;16.33;;;;;;;;;;4979913;28;20196;-88
2022/03/18 11:45:42;;;;;;;20.47;15.80;;;;;;;;;;4980133;28;20193;-87
2022/03/18 11:48:57;;;;;;;19.63;15.17;;;;;;;;;;4979895;28;20202;-87
2022/03/18 11:52:02;;;;;;;25.00;15.53;;;;;;;;;;4990826;28;20205;-87
2022/03/18 11:55:10;;;;;;;25.27;15.60;;;;;;;;;;4968689;28;20181;-87
2022/03/18 11:58:32;;;;;;;21.90;16.10;;;;;;;;;;4979759;28;20186;-87
2022/03/18 12:01:40;;;;;;;23.10;16.57;;;;;;;;;;4968691;28;20189;-87
2022/03/18 12:04:47;;;;;;;24.10;16.50;;;;;;;;;;4968550;28;20242;-87
2022/03/18 12:07:54;;;;;;;20.37;14.23;;;;;;;;;;4968718;28;20197;-86
2022/03/18 12:11:00;;;;;;;23.23;16.53;;;;;;;;;;4979747;28;20185;-87
2022/03/18 12:14:08;;;;;;;19.77;13.53;;;;;;;;;;4968510;28;20217;-87
2022/03/18 12:17:12;;;;;;;19.67;14.37;;;;;;;;;;4968599;28;20197;-87
2022/03/18 12:20:21;;;;;;;22.07;13.83;;;;;;;;;;4979205;28;20233;-87
2022/03/18 12:23:33;;;;;;;22.83;14.33;;;;;;;;;;4968317;28;20185;-87
2022/03/18 12:26:39;;;;;;;18.70;12.67;;;;;;;;;;4979899;28;20186;-86
2022/03/18 12:29:43;;;;;;;15.87;11.50;;;;;;;;;;4990381;28;20240;-87
2022/03/18 12:32:57;;;;;;;14.53;10.93;;;;;;;;;;4968232;28;20217;-87
2022/03/18 12:36:01;;;;;;;15.57;10.90;;;;;;;;;;4979305;28;20651;-87
2022/03/18 12:39:06;;;;;;;15.47;11.37;;;;;;;;;;4979518;28;20699;-87
2022/03/18 12:42:12;;;;;;;16.20;10.83;;;;;;;;;;4979372;28;20201;-87
2022/03/18 12:45:23;;;;;;;15.30;10.60;;;;;;;;;;4991481;28;20189;-88
2022/03/18 12:48:27;;;;;;;16.33;11.17;;;;;;;;;;4979203;28;20549;-88
2022/03/18 12:51:31;;;;;;;15.53;11.73;;;;;;;;;;4979258;28;20678;-87
2022/03/18 12:54:35;;;;;;;17.23;11.60;;;;;;;;;;4979330;28;20695;-87
2022/03/18 12:57:47;;;;;;;15.40;11.07;;;;;;;;;;4968675;28;20198;-87
2022/03/18 13:00:55;;;;;;;16.80;11.27;;;;;;;;;;5055822;23;20238;-84
2022/03/18 13:03:59;;;;;;;16.87;11.83;;;;;;;;;;5053529;28;20194;-84
2022/03/18 13:07:03;;;;;;;14.73;11.17;;;;;;;;;;5064936;28;20557;-84
2022/03/18 13:10:09;;;;;;;14.40;10.73;;;;;;;;;;5045247;28;20708;-84
2022/03/18 13:13:13;;;;;;;15.33;10.90;;;;;;;;;;5044843;28;20215;-84
2022/03/18 13:16:23;;;;;;;13.93;10.00;;;;;;;;;;5056232;28;20195;-84
2022/03/18 13:19:43;;;;;;;17.30;11.40;;;;;;;;;;5056451;28;20231;-84
2022/03/18 13:22:47;;;;;;;16.37;10.87;;;;;;;;;;5044915;28;20191;-84
2022/03/18 13:25:52;;;;;;;18.50;10.70;;;;;;;;;;5044793;28;20187;-84
2022/03/18 13:28:56;;;;;;;16.70;10.20;;;;;;;;;;5067435;28;20203;-84
2022/03/18 13:35:27;;;;;;;15.17;10.83;;;;;;;;;;5067432;28;20175;-84
2022/03/18 13:38:32;;;;;;;16.10;10.70;;;;;;;;;;5056179;28;20206;-85
2022/03/18 13:41:48;;;;;;;14.60;9.93;;;;;;;;;;5044238;28;20203;-85
2022/03/18 13:44:52;;;;;;;15.80;10.50;;;;;;;;;;5055318;28;20184;-85
2022/03/18 13:47:57;;;;;;;15.97;10.87;;;;;;;;;;5044260;28;20193;-85
2022/03/18 13:51:02;;;;;;;16.60;10.30;;;;;;;;;;5055510;28;20231;-85
2022/03/18 13:54:15;;;;;;;16.20;9.93;;;;;;;;;;5055374;28;20575;-85
2022/03/18 13:57:20;;;;;;;14.73;10.13;;;;;;;;;;5055367;28;20184;-86
2022/03/18 14:00:26;;;;;;;15.23;10.33;;;;;;;;;;5044531;28;20226;-87
2022/03/18 14:03:30;;;;;;;13.63;9.47;;;;;;;;;;5043754;28;20179;-87
2022/03/18 14:06:59;;;;;;;17.17;9.80;;;;;;;;;;5043797;28;20538;-87
2022/03/18 14:10:03;;;;;;;11.63;8.70;;;;;;;;;;5043546;28;20226;-87
2022/03/18 14:13:10;;;;;;;12.07;8.73;;;;;;;;;;5043421;28;20200;-85
2022/03/18 14:16:15;;;;;;;12.73;8.67;;;;;;;;;;5044687;28;20192;-85
2022/03/18 14:19:43;;;;;;;12.03;8.73;;;;;;;;;;5044012;28;20582;-85
2022/03/18 14:22:53;;;;;;;12.87;8.93;;;;;;;;;;5055992;28;20194;-85
2022/03/18 14:26:08;;;;;;;14.63;9.20;;;;;;;;;;5043830;28;20184;-87
2022/03/18 14:29:13;;;;;;;12.93;8.90;;;;;;;;;;5066088;28;20228;-87
2022/03/18 14:32:19;;;;;;;12.67;9.27;;;;;;;;;;5054489;28;20184;-85
2022/03/18 14:36:08;;;;;;;14.73;9.50;;;;;;;;;;5059909;28;20192;-87
2022/03/18 14:39:12;;;;;;;14.03;9.90;;;;;;;;;;5054429;28;20227;-86
2022/03/18 14:42:17;;;;;;;22.67;16.00;;;;;;;;;;5043429;28;20554;-87
2022/03/18 14:45:22;;;;;;;20.63;16.83;;;;;;;;;;5043208;28;20645;-83
2022/03/18 14:48:28;;;;;;;34.20;17.23;;;;;;;;;;5066112;28;20187;-84
2022/03/18 14:51:32;;;;;;;24.60;16.27;;;;;;;;;;5042502;28;20565;-85
2022/03/18 14:58:01;;;;;;;24.60;17.77;;;;;;;;;;5054248;28;20188;-85
2022/03/18 15:01:06;;;;;;;27.53;18.73;;;;;;;;;;5043305;28;20298;-85
2022/03/18 15:04:10;;;;;;;27.87;19.00;;;;;;;;;;5053610;28;20278;-84
2022/03/18 15:07:14;;;;;;;26.50;18.60;;;;;;;;;;5042737;28;20179;-85
2022/03/18 15:10:20;;;;;;;29.33;19.87;;;;;;;;;;5042636;28;20223;-85
2022/03/18 15:13:24;;;;;;;27.00;18.57;;;;;;;;;;5042346;28;20191;-85
2022/03/18 15:16:29;;;;;;;26.77;17.47;;;;;;;;;;5055196;28;20187;-84
2022/03/18 15:19:35;;;;;;;25.87;17.73;;;;;;;;;;5053497;28;20227;-85
2022/03/18 15:22:39;;;;;;;24.27;16.97;;;;;;;;;;5053872;28;20195;-85
2022/03/18 15:25:43;;;;;;;25.30;17.83;;;;;;;;;;5043690;28;20278;-84
2022/03/18 15:28:48;;;;;;;22.67;16.53;;;;;;;;;;5043623;28;20187;-84
2022/03/18 15:31:53;;;;;;;25.53;17.63;;;;;;;;;;5043904;28;20191;-84
2022/03/18 15:34:57;;;;;;;23.67;16.97;;;;;;;;;;5053934;28;20219;-86
2022/03/18 15:38:02;;;;;;;26.07;18.63;;;;;;;;;;5057388;28;20578;-86
2022/03/18 15:41:06;;;;;;;23.20;16.57;;;;;;;;;;5057899;28;20246;-83
2022/03/18 15:44:12;;;;;;;25.03;17.07;;;;;;;;;;5055432;28;20178;-85
2022/03/18 15:47:17;;;;;;;21.97;16.37;;;;;;;;;;5042382;28;20198;-85
2022/03/18 15:50:25;;;;;;;23.37;16.77;;;;;;;;;;5043195;28;20219;-83
2022/03/18 15:53:30;;;;;;;23.60;16.33;;;;;;;;;;5043549;28;20202;-86
2022/03/18 15:56:38;;;;;;;23.13;16.17;;;;;;;;;;5041955;28;20183;-84
2022/03/18 15:59:43;;;;;;;21.97;15.97;;;;;;;;;;5042392;28;20230;-84
2022/03/18 16:02:48;;;;;;;23.03;16.80;;;;;;;;;;5064609;28;20263;-86
2022/03/18 16:05:53;;;;;;;28.77;20.33;;;;;;;;;;5032237;28;20207;-84
2022/03/18 16:08:57;;;;;;;43.73;28.10;;;;;;;;;;5042603;28;20693;-84
2022/03/18 16:12:03;;;;;;;39.67;26.07;;;;;;;;;;5065066;28;20187;-84
2022/03/18 16:15:09;;;;;;;28.80;21.27;;;;;;;;;;5056144;28;20207;-85
2022/03/18 16:18:15;;;;;;;34.23;22.87;;;;;;;;;;5043242;28;20682;-85
2022/03/18 16:21:24;;;;;;;27.13;19.70;;;;;;;;;;5053810;28;20183;-86
2022/03/18 16:24:30;;;;;;;27.57;19.53;;;;;;;;;;5054337;28;20255;-84
2022/03/18 16:27:35;;;;;;;35.33;20.10;;;;;;;;;;5054295;28;20187;-83
2022/03/18 16:30:40;;;;;;;29.30;20.30;;;;;;;;;;5055196;28;20230;-84
2022/03/18 16:33:49;;;;;;;31.00;20.53;;;;;;;;;;5042144;28;20243;-83
2022/03/18 16:36:57;;;;;;;37.93;21.07;;;;;;;;;;5056760;28;20187;-85
2022/03/18 16:40:02;;;;;;;29.80;20.23;;;;;;;;;;5056867;28;20239;-85
2022/03/18 16:43:07;;;;;;;28.97;20.60;;;;;;;;;;5056639;28;20210;-86
2022/03/18 16:49:33;;;;;;;30.73;20.77;;;;;;;;;;5068021;28;20570;-85
2022/03/18 16:52:39;;;;;;;36.00;22.80;;;;;;;;;;5046258;28;20223;-84
2022/03/18 16:55:43;;;;;;;30.33;20.80;;;;;;;;;;5044800;28;20211;-84
2022/03/18 16:58:48;;;;;;;30.00;19.07;;;;;;;;;;5058512;28;20649;-85
2022/03/18 17:01:53;;;;;;;26.90;19.10;;;;;;;;;;5058015;28;20188;-86
2022/03/18 17:04:58;;;;;;;27.17;18.57;;;;;;;;;;5045965;28;20179;-87
2022/03/18 17:08:03;;;;;;;25.93;18.83;;;;;;;;;;5069043;28;20179;-86
2022/03/18 17:11:07;;;;;;;27.00;19.27;;;;;;;;;;5055750;28;20219;-85
2022/03/18 17:14:13;;;;;;;26.50;18.97;;;;;;;;;;5056866;28;20226;-85
2022/03/18 17:17:18;;;;;;;32.83;19.87;;;;;;;;;;5055987;28;20183;-85
2022/03/18 17:20:21;;;;;;;28.10;19.00;;;;;;;;;;5055588;28;20729;-85
2022/03/18 17:23:26;;;;;;;26.90;19.03;;;;;;;;;;5056162;28;20208;-84
2022/03/18 17:26:33;;;;;;;27.00;19.00;;;;;;;;;;5055880;28;20638;-84
2022/03/18 17:29:38;;;;;;;29.77;18.53;;;;;;;;;;5047032;28;20224;-84
2022/03/18 17:32:41;;;;;;;26.87;18.73;;;;;;;;;;5060451;28;20180;-84
2022/03/18 17:35:46;;;;;;;33.40;19.60;;;;;;;;;;5044566;28;20219;-85
2022/03/18 17:38:52;;;;;;;33.27;20.03;;;;;;;;;;5044813;28;20191;-84
2022/03/18 17:41:56;;;;;;;29.97;20.63;;;;;;;;;;5057119;28;20187;-86
2022/03/18 17:45:02;;;;;;;30.77;20.87;;;;;;;;;;5055402;28;20185;-86
2022/03/18 17:48:07;;;;;;;33.50;20.87;;;;;;;;;;5045598;28;20192;-84
2022/03/18 17:51:12;;;;;;;29.60;19.80;;;;;;;;;;5055933;28;20211;-86
2022/03/18 17:54:18;;;;;;;35.07;21.10;;;;;;;;;;5044334;28;20203;-85
2022/03/18 17:57:22;;;;;;;32.13;20.37;;;;;;;;;;5045358;28;20662;-86
2022/03/18 18:00:27;;;;;;;35.13;20.03;;;;;;;;;;5054887;28;20226;-86
2022/03/18 18:03:33;;;;;;;32.27;20.37;;;;;;;;;;5044613;28;20191;-86
2022/03/18 18:06:40;;;;;;;28.03;19.20;;;;;;;;;;5043861;28;20185;-86
2022/03/18 18:09:44;;;;;;;29.23;19.90;;;;;;;;;;5055924;28;20223;-84
2022/03/18 18:12:51;;;;;;;30.37;19.93;;;;;;;;;;5046159;28;20176;-84
2022/03/18 18:15:56;;;;;;;30.53;20.87;;;;;;;;;;5055437;28;20219;-86
2022/03/18 18:22:27;;;;;;;34.20;22.33;;;;;;;;;;5055137;28;20180;-85
2022/03/18 18:25:32;;;;;;;35.60;23.33;;;;;;;;;;5054751;28;20184;-85
2022/03/18 18:28:37;;;;;;;36.73;23.23;;;;;;;;;;5044134;28;20191;-84
2022/03/18 18:31:40;;;;;;;30.73;22.30;;;;;;;;;;5056242;28;20195;-85